sensor_id;sensor_type;location;lat;lon;timestamp;P1;durP1;ratioP1;P2;durP2;ratioP2
77322;SDS011;66384;51.052;9.850;2023-06-14T00:00:16;8.50;;;3.70;;
77322;SDS011;66384;51.052;9.850;2023-06-14T00:02:46;4.70;;;3.80;;
77322;SDS011;66384;51.052;9.850;2023-06-14T00:05:15;5.80;;;4.00;;
77322;SDS011;66384;51.052;9.850;2023-06-14T00:07:45;5.30;;;4.10;;
77322;SDS011;66384;51.052;9.850;2023-06-14T00:10:14;6.20;;;3.50;;
77322;SDS011;66384;51.052;9.850;2023-06-14T00:12:44;4.90;;;3.90;;
77322;SDS011;66384;51.052;9.850;2023-06-14T00:15:13;4.70;;;3.40;;
77322;SDS011;66384;51.052;9.850;2023-06-14T00:17:42;5.50;;;4.00;;
77322;SDS011;66384;51.052;9.850;2023-06-14T00:20:13;6.00;;;3.60;;
77322;SDS011;66384;51.052;9.850;2023-06-14T00:22:43;5.90;;;4.10;;
77322;SDS011;66384;51.052;9.850;2023-06-14T00:25:12;6.80;;;3.80;;
77322;SDS011;66384;51.052;9.850;2023-06-14T00:27:41;7.90;;;4.50;;
77322;SDS011;66384;51.052;9.850;2023-06-14T00:30:12;5.40;;;4.20;;
77322;SDS011;66384;51.052;9.850;2023-06-14T00:32:42;7.00;;;4.20;;
77322;SDS011;66384;51.052;9.850;2023-06-14T00:35:12;5.40;;;4.20;;
77322;SDS011;66384;51.052;9.850;2023-06-14T00:37:41;5.30;;;3.70;;
77322;SDS011;66384;51.052;9.850;2023-06-14T00:40:10;6.80;;;3.60;;
77322;SDS011;66384;51.052;9.850;2023-06-14T00:42:40;5.40;;;3.80;;
77322;SDS011;66384;51.052;9.850;2023-06-14T00:45:10;6.30;;;3.80;;
77322;SDS011;66384;51.052;9.850;2023-06-14T00:47:40;8.60;;;3.80;;
77322;SDS011;66384;51.052;9.850;2023-06-14T00:50:10;5.60;;;4.20;;
77322;SDS011;66384;51.052;9.850;2023-06-14T00:52:40;4.20;;;3.50;;
77322;SDS011;66384;51.052;9.850;2023-06-14T00:55:10;4.40;;;3.30;;
77322;SDS011;66384;51.052;9.850;2023-06-14T00:57:40;5.60;;;3.50;;
77322;SDS011;66384;51.052;9.850;2023-06-14T01:00:10;5.40;;;3.80;;
77322;SDS011;66384;51.052;9.850;2023-06-14T01:02:41;6.50;;;3.10;;
77322;SDS011;66384;51.052;9.850;2023-06-14T01:05:10;5.70;;;3.50;;
77322;SDS011;66384;51.052;9.850;2023-06-14T01:07:43;5.30;;;3.40;;
77322;SDS011;66384;51.052;9.850;2023-06-14T01:10:24;5.60;;;3.70;;
77322;SDS011;66384;51.052;9.850;2023-06-14T01:13:02;5.10;;;3.40;;
77322;SDS011;66384;51.052;9.850;2023-06-14T01:15:37;5.20;;;3.40;;
77322;SDS011;66384;51.052;9.850;2023-06-14T01:18:08;10.40;;;4.20;;
77322;SDS011;66384;51.052;9.850;2023-06-14T01:20:44;6.80;;;3.80;;
77322;SDS011;66384;51.052;9.850;2023-06-14T01:23:15;5.20;;;4.20;;
77322;SDS011;66384;51.052;9.850;2023-06-14T01:25:46;6.60;;;3.50;;
77322;SDS011;66384;51.052;9.850;2023-06-14T01:28:19;7.20;;;4.30;;
77322;SDS011;66384;51.052;9.850;2023-06-14T01:30:49;4.10;;;3.50;;
77322;SDS011;66384;51.052;9.850;2023-06-14T01:33:21;5.90;;;4.40;;
77322;SDS011;66384;51.052;9.850;2023-06-14T01:35:53;5.00;;;3.20;;
77322;SDS011;66384;51.052;9.850;2023-06-14T01:38:25;8.40;;;3.60;;
77322;SDS011;66384;51.052;9.850;2023-06-14T01:40:55;6.70;;;3.50;;
77322;SDS011;66384;51.052;9.850;2023-06-14T01:43:27;8.60;;;3.80;;
77322;SDS011;66384;51.052;9.850;2023-06-14T01:45:59;6.40;;;3.40;;
77322;SDS011;66384;51.052;9.850;2023-06-14T01:48:29;7.50;;;4.00;;
77322;SDS011;66384;51.052;9.850;2023-06-14T01:50:59;6.50;;;4.40;;
77322;SDS011;66384;51.052;9.850;2023-06-14T01:53:28;5.90;;;3.60;;
77322;SDS011;66384;51.052;9.850;2023-06-14T01:55:57;5.60;;;3.40;;
77322;SDS011;66384;51.052;9.850;2023-06-14T01:58:28;4.60;;;3.70;;
77322;SDS011;66384;51.052;9.850;2023-06-14T02:00:58;4.40;;;3.50;;
77322;SDS011;66384;51.052;9.850;2023-06-14T02:03:28;5.00;;;3.60;;
77322;SDS011;66384;51.052;9.850;2023-06-14T02:05:57;4.50;;;3.30;;
77322;SDS011;66384;51.052;9.850;2023-06-14T02:08:27;4.30;;;3.60;;
77322;SDS011;66384;51.052;9.850;2023-06-14T02:10:56;5.80;;;3.50;;
77322;SDS011;66384;51.052;9.850;2023-06-14T02:13:25;7.70;;;3.30;;
77322;SDS011;66384;51.052;9.850;2023-06-14T02:15:55;5.10;;;3.70;;
77322;SDS011;66384;51.052;9.850;2023-06-14T02:18:24;7.70;;;3.30;;
77322;SDS011;66384;51.052;9.850;2023-06-14T02:20:53;5.30;;;4.00;;
77322;SDS011;66384;51.052;9.850;2023-06-14T02:23:23;5.10;;;3.30;;
77322;SDS011;66384;51.052;9.850;2023-06-14T02:25:52;6.40;;;4.10;;
77322;SDS011;66384;51.052;9.850;2023-06-14T02:28:22;7.70;;;3.60;;
77322;SDS011;66384;51.052;9.850;2023-06-14T02:30:52;6.40;;;3.30;;
77322;SDS011;66384;51.052;9.850;2023-06-14T02:33:21;6.30;;;3.70;;
77322;SDS011;66384;51.052;9.850;2023-06-14T02:35:51;6.00;;;3.40;;
77322;SDS011;66384;51.052;9.850;2023-06-14T02:38:21;5.50;;;3.40;;
77322;SDS011;66384;51.052;9.850;2023-06-14T02:40:50;4.90;;;3.90;;
77322;SDS011;66384;51.052;9.850;2023-06-14T02:43:19;4.80;;;3.10;;
77322;SDS011;66384;51.052;9.850;2023-06-14T02:45:48;5.40;;;3.40;;
77322;SDS011;66384;51.052;9.850;2023-06-14T02:48:18;4.70;;;3.60;;
77322;SDS011;66384;51.052;9.850;2023-06-14T02:50:48;6.00;;;3.40;;
77322;SDS011;66384;51.052;9.850;2023-06-14T02:53:17;6.10;;;3.80;;
77322;SDS011;66384;51.052;9.850;2023-06-14T02:55:46;5.10;;;3.60;;
77322;SDS011;66384;51.052;9.850;2023-06-14T02:58:16;6.40;;;3.40;;
77322;SDS011;66384;51.052;9.850;2023-06-14T03:00:45;4.70;;;3.10;;
77322;SDS011;66384;51.052;9.850;2023-06-14T03:03:14;4.40;;;2.90;;
77322;SDS011;66384;51.052;9.850;2023-06-14T03:05:45;5.60;;;3.20;;
77322;SDS011;66384;51.052;9.850;2023-06-14T03:08:16;5.40;;;3.40;;
77322;SDS011;66384;51.052;9.850;2023-06-14T03:10:46;5.20;;;3.60;;
77322;SDS011;66384;51.052;9.850;2023-06-14T03:13:16;4.40;;;3.20;;
77322;SDS011;66384;51.052;9.850;2023-06-14T03:15:47;5.00;;;3.50;;
77322;SDS011;66384;51.052;9.850;2023-06-14T03:18:17;4.80;;;3.40;;
77322;SDS011;66384;51.052;9.850;2023-06-14T03:20:49;4.80;;;3.50;;
77322;SDS011;66384;51.052;9.850;2023-06-14T03:23:18;5.30;;;3.60;;
77322;SDS011;66384;51.052;9.850;2023-06-14T03:25:48;4.10;;;3.20;;
77322;SDS011;66384;51.052;9.850;2023-06-14T03:28:17;4.40;;;3.50;;
77322;SDS011;66384;51.052;9.850;2023-06-14T03:30:47;5.20;;;2.90;;
77322;SDS011;66384;51.052;9.850;2023-06-14T03:33:16;5.10;;;3.40;;
77322;SDS011;66384;51.052;9.850;2023-06-14T03:35:45;5.40;;;3.30;;
77322;SDS011;66384;51.052;9.850;2023-06-14T03:38:16;5.20;;;3.30;;
77322;SDS011;66384;51.052;9.850;2023-06-14T03:40:45;4.40;;;3.30;;
77322;SDS011;66384;51.052;9.850;2023-06-14T03:43:14;5.10;;;3.20;;
77322;SDS011;66384;51.052;9.850;2023-06-14T03:45:43;4.20;;;3.30;;
77322;SDS011;66384;51.052;9.850;2023-06-14T03:48:13;4.80;;;3.50;;
77322;SDS011;66384;51.052;9.850;2023-06-14T03:50:42;4.90;;;3.40;;
77322;SDS011;66384;51.052;9.850;2023-06-14T03:53:12;4.60;;;3.40;;
77322;SDS011;66384;51.052;9.850;2023-06-14T03:55:41;4.90;;;3.20;;
77322;SDS011;66384;51.052;9.850;2023-06-14T03:58:10;6.60;;;3.20;;
77322;SDS011;66384;51.052;9.850;2023-06-14T04:00:39;5.60;;;3.10;;
77322;SDS011;66384;51.052;9.850;2023-06-14T04:03:09;4.70;;;3.20;;
77322;SDS011;66384;51.052;9.850;2023-06-14T04:05:40;4.80;;;3.30;;
77322;SDS011;66384;51.052;9.850;2023-06-14T04:08:09;4.90;;;3.70;;
77322;SDS011;66384;51.052;9.850;2023-06-14T04:10:41;6.40;;;3.80;;
77322;SDS011;66384;51.052;9.850;2023-06-14T04:13:10;5.20;;;3.40;;
77322;SDS011;66384;51.052;9.850;2023-06-14T04:15:39;4.30;;;3.10;;
77322;SDS011;66384;51.052;9.850;2023-06-14T04:18:10;4.80;;;3.20;;
77322;SDS011;66384;51.052;9.850;2023-06-14T04:20:39;5.40;;;3.20;;
77322;SDS011;66384;51.052;9.850;2023-06-14T04:23:13;6.60;;;3.60;;
77322;SDS011;66384;51.052;9.850;2023-06-14T04:25:44;10.90;;;3.80;;
77322;SDS011;66384;51.052;9.850;2023-06-14T04:28:15;4.40;;;3.50;;
77322;SDS011;66384;51.052;9.850;2023-06-14T04:30:46;6.40;;;3.30;;
77322;SDS011;66384;51.052;9.850;2023-06-14T04:33:15;4.60;;;3.50;;
77322;SDS011;66384;51.052;9.850;2023-06-14T04:35:44;6.80;;;4.10;;
77322;SDS011;66384;51.052;9.850;2023-06-14T04:38:15;8.30;;;4.00;;
77322;SDS011;66384;51.052;9.850;2023-06-14T04:40:45;5.70;;;3.50;;
77322;SDS011;66384;51.052;9.850;2023-06-14T04:43:14;6.30;;;3.80;;
77322;SDS011;66384;51.052;9.850;2023-06-14T04:45:44;5.90;;;3.40;;
77322;SDS011;66384;51.052;9.850;2023-06-14T04:48:14;6.30;;;3.90;;
77322;SDS011;66384;51.052;9.850;2023-06-14T04:50:47;3.80;;;3.10;;
77322;SDS011;66384;51.052;9.850;2023-06-14T04:53:19;5.50;;;3.60;;
77322;SDS011;66384;51.052;9.850;2023-06-14T04:55:49;5.10;;;3.40;;
77322;SDS011;66384;51.052;9.850;2023-06-14T04:58:19;12.60;;;5.30;;
77322;SDS011;66384;51.052;9.850;2023-06-14T05:00:48;8.10;;;4.20;;
77322;SDS011;66384;51.052;9.850;2023-06-14T05:03:17;4.70;;;3.30;;
77322;SDS011;66384;51.052;9.850;2023-06-14T05:05:47;6.30;;;4.80;;
77322;SDS011;66384;51.052;9.850;2023-06-14T05:08:17;6.50;;;3.70;;
77322;SDS011;66384;51.052;9.850;2023-06-14T05:10:46;4.80;;;3.20;;
77322;SDS011;66384;51.052;9.850;2023-06-14T05:13:16;5.00;;;3.50;;
77322;SDS011;66384;51.052;9.850;2023-06-14T05:15:45;4.40;;;3.20;;
77322;SDS011;66384;51.052;9.850;2023-06-14T05:18:15;4.90;;;3.90;;
77322;SDS011;66384;51.052;9.850;2023-06-14T05:20:45;6.60;;;3.80;;
77322;SDS011;66384;51.052;9.850;2023-06-14T05:23:14;6.10;;;3.60;;
77322;SDS011;66384;51.052;9.850;2023-06-14T05:25:44;7.40;;;4.50;;
77322;SDS011;66384;51.052;9.850;2023-06-14T05:28:14;4.70;;;3.40;;
77322;SDS011;66384;51.052;9.850;2023-06-14T05:30:43;6.20;;;3.60;;
77322;SDS011;66384;51.052;9.850;2023-06-14T05:33:12;5.40;;;3.20;;
77322;SDS011;66384;51.052;9.850;2023-06-14T05:35:42;8.10;;;3.90;;
77322;SDS011;66384;51.052;9.850;2023-06-14T05:38:11;5.10;;;3.50;;
77322;SDS011;66384;51.052;9.850;2023-06-14T05:40:40;4.70;;;3.20;;
77322;SDS011;66384;51.052;9.850;2023-06-14T05:43:09;5.40;;;3.20;;
77322;SDS011;66384;51.052;9.850;2023-06-14T05:45:39;5.60;;;3.60;;
77322;SDS011;66384;51.052;9.850;2023-06-14T05:48:08;5.60;;;3.50;;
77322;SDS011;66384;51.052;9.850;2023-06-14T05:50:38;4.70;;;4.10;;
77322;SDS011;66384;51.052;9.850;2023-06-14T05:53:07;5.30;;;3.80;;
77322;SDS011;66384;51.052;9.850;2023-06-14T05:55:36;6.10;;;4.10;;
77322;SDS011;66384;51.052;9.850;2023-06-14T05:58:05;5.70;;;3.80;;
77322;SDS011;66384;51.052;9.850;2023-06-14T06:00:34;4.90;;;3.90;;
77322;SDS011;66384;51.052;9.850;2023-06-14T06:03:04;6.90;;;5.10;;
77322;SDS011;66384;51.052;9.850;2023-06-14T06:05:35;6.10;;;4.20;;
77322;SDS011;66384;51.052;9.850;2023-06-14T06:08:05;8.60;;;5.90;;
77322;SDS011;66384;51.052;9.850;2023-06-14T06:10:34;8.40;;;5.60;;
77322;SDS011;66384;51.052;9.850;2023-06-14T06:13:03;4.90;;;3.90;;
77322;SDS011;66384;51.052;9.850;2023-06-14T06:15:33;8.60;;;4.60;;
77322;SDS011;66384;51.052;9.850;2023-06-14T06:18:03;4.80;;;3.80;;
77322;SDS011;66384;51.052;9.850;2023-06-14T06:20:32;7.00;;;4.50;;
77322;SDS011;66384;51.052;9.850;2023-06-14T06:23:02;7.00;;;4.60;;
77322;SDS011;66384;51.052;9.850;2023-06-14T06:25:32;6.50;;;4.40;;
77322;SDS011;66384;51.052;9.850;2023-06-14T06:28:01;6.10;;;3.80;;
77322;SDS011;66384;51.052;9.850;2023-06-14T06:30:31;7.30;;;4.40;;
77322;SDS011;66384;51.052;9.850;2023-06-14T06:33:00;4.70;;;3.80;;
77322;SDS011;66384;51.052;9.850;2023-06-14T06:35:30;8.70;;;5.50;;
77322;SDS011;66384;51.052;9.850;2023-06-14T06:37:59;23.80;;;15.80;;
77322;SDS011;66384;51.052;9.850;2023-06-14T06:40:29;17.80;;;10.00;;
77322;SDS011;66384;51.052;9.850;2023-06-14T06:42:58;46.70;;;32.10;;
77322;SDS011;66384;51.052;9.850;2023-06-14T06:45:27;22.40;;;15.80;;
77322;SDS011;66384;51.052;9.850;2023-06-14T06:47:57;11.70;;;8.70;;
77322;SDS011;66384;51.052;9.850;2023-06-14T06:50:26;24.00;;;16.80;;
77322;SDS011;66384;51.052;9.850;2023-06-14T06:52:56;27.60;;;19.60;;
77322;SDS011;66384;51.052;9.850;2023-06-14T06:55:26;10.20;;;6.50;;
77322;SDS011;66384;51.052;9.850;2023-06-14T06:57:55;18.20;;;13.40;;
77322;SDS011;66384;51.052;9.850;2023-06-14T07:00:25;7.90;;;5.60;;
77322;SDS011;66384;51.052;9.850;2023-06-14T07:02:54;12.70;;;8.10;;
77322;SDS011;66384;51.052;9.850;2023-06-14T07:05:23;7.30;;;5.60;;
77322;SDS011;66384;51.052;9.850;2023-06-14T07:07:52;10.80;;;7.20;;
77322;SDS011;66384;51.052;9.850;2023-06-14T07:10:21;13.50;;;8.40;;
77322;SDS011;66384;51.052;9.850;2023-06-14T07:12:52;8.60;;;6.60;;
77322;SDS011;66384;51.052;9.850;2023-06-14T07:15:21;11.30;;;8.50;;
77322;SDS011;66384;51.052;9.850;2023-06-14T07:17:50;10.20;;;7.60;;
77322;SDS011;66384;51.052;9.850;2023-06-14T07:20:20;16.40;;;12.00;;
77322;SDS011;66384;51.052;9.850;2023-06-14T07:22:51;11.10;;;7.90;;
77322;SDS011;66384;51.052;9.850;2023-06-14T07:25:20;18.20;;;9.70;;
77322;SDS011;66384;51.052;9.850;2023-06-14T07:27:49;32.00;;;23.60;;
77322;SDS011;66384;51.052;9.850;2023-06-14T07:30:18;19.70;;;14.10;;
77322;SDS011;66384;51.052;9.850;2023-06-14T07:32:52;12.40;;;9.90;;
77322;SDS011;66384;51.052;9.850;2023-06-14T07:35:21;22.70;;;17.30;;
77322;SDS011;66384;51.052;9.850;2023-06-14T07:37:50;27.70;;;20.20;;
77322;SDS011;66384;51.052;9.850;2023-06-14T07:40:20;23.00;;;17.70;;
77322;SDS011;66384;51.052;9.850;2023-06-14T07:42:49;8.90;;;6.70;;
77322;SDS011;66384;51.052;9.850;2023-06-14T07:45:20;10.60;;;7.70;;
77322;SDS011;66384;51.052;9.850;2023-06-14T07:47:49;11.20;;;8.10;;
77322;SDS011;66384;51.052;9.850;2023-06-14T07:50:19;8.80;;;6.30;;
77322;SDS011;66384;51.052;9.850;2023-06-14T07:52:48;6.40;;;4.40;;
77322;SDS011;66384;51.052;9.850;2023-06-14T07:55:17;7.00;;;5.70;;
77322;SDS011;66384;51.052;9.850;2023-06-14T07:57:46;9.60;;;7.40;;
77322;SDS011;66384;51.052;9.850;2023-06-14T08:00:17;10.40;;;7.50;;
77322;SDS011;66384;51.052;9.850;2023-06-14T08:02:47;12.50;;;8.50;;
77322;SDS011;66384;51.052;9.850;2023-06-14T08:05:17;9.40;;;6.50;;
77322;SDS011;66384;51.052;9.850;2023-06-14T08:07:46;10.40;;;6.90;;
77322;SDS011;66384;51.052;9.850;2023-06-14T08:10:15;9.60;;;7.00;;
77322;SDS011;66384;51.052;9.850;2023-06-14T08:12:45;9.60;;;7.20;;
77322;SDS011;66384;51.052;9.850;2023-06-14T08:15:16;8.60;;;5.90;;
77322;SDS011;66384;51.052;9.850;2023-06-14T08:17:46;7.50;;;4.70;;
77322;SDS011;66384;51.052;9.850;2023-06-14T08:20:15;9.20;;;6.30;;
77322;SDS011;66384;51.052;9.850;2023-06-14T08:22:44;6.20;;;4.30;;
77322;SDS011;66384;51.052;9.850;2023-06-14T08:25:14;7.90;;;6.00;;
77322;SDS011;66384;51.052;9.850;2023-06-14T08:27:44;6.30;;;5.10;;
77322;SDS011;66384;51.052;9.850;2023-06-14T08:30:14;6.90;;;5.10;;
77322;SDS011;66384;51.052;9.850;2023-06-14T08:32:44;5.10;;;4.50;;
77322;SDS011;66384;51.052;9.850;2023-06-14T08:35:13;7.80;;;5.10;;
77322;SDS011;66384;51.052;9.850;2023-06-14T08:37:44;7.40;;;5.20;;
77322;SDS011;66384;51.052;9.850;2023-06-14T08:40:17;5.90;;;4.70;;
77322;SDS011;66384;51.052;9.850;2023-06-14T08:42:51;6.40;;;4.70;;
77322;SDS011;66384;51.052;9.850;2023-06-14T08:45:22;6.80;;;4.80;;
77322;SDS011;66384;51.052;9.850;2023-06-14T08:47:52;7.90;;;5.70;;
77322;SDS011;66384;51.052;9.850;2023-06-14T08:50:26;7.20;;;5.00;;
77322;SDS011;66384;51.052;9.850;2023-06-14T08:52:56;5.70;;;4.80;;
77322;SDS011;66384;51.052;9.850;2023-06-14T08:55:29;5.60;;;4.50;;
77322;SDS011;66384;51.052;9.850;2023-06-14T08:57:59;6.10;;;5.50;;
77322;SDS011;66384;51.052;9.850;2023-06-14T09:00:29;5.80;;;5.00;;
77322;SDS011;66384;51.052;9.850;2023-06-14T09:02:59;6.60;;;5.20;;
77322;SDS011;66384;51.052;9.850;2023-06-14T09:05:30;6.50;;;4.30;;
77322;SDS011;66384;51.052;9.850;2023-06-14T09:07:59;20.00;;;5.00;;
77322;SDS011;66384;51.052;9.850;2023-06-14T09:10:28;8.90;;;6.60;;
77322;SDS011;66384;51.052;9.850;2023-06-14T09:13:01;13.10;;;9.30;;
77322;SDS011;66384;51.052;9.850;2023-06-14T09:15:31;13.30;;;10.30;;
77322;SDS011;66384;51.052;9.850;2023-06-14T09:18:02;9.00;;;6.50;;
77322;SDS011;66384;51.052;9.850;2023-06-14T09:20:32;10.10;;;7.20;;
77322;SDS011;66384;51.052;9.850;2023-06-14T09:23:02;8.40;;;6.70;;
77322;SDS011;66384;51.052;9.850;2023-06-14T09:25:34;7.80;;;6.00;;
77322;SDS011;66384;51.052;9.850;2023-06-14T09:28:11;14.20;;;7.10;;
77322;SDS011;66384;51.052;9.850;2023-06-14T09:30:40;6.20;;;5.50;;
77322;SDS011;66384;51.052;9.850;2023-06-14T09:33:09;10.00;;;5.40;;
77322;SDS011;66384;51.052;9.850;2023-06-14T09:35:44;6.90;;;6.10;;
77322;SDS011;66384;51.052;9.850;2023-06-14T09:38:18;7.00;;;6.00;;
77322;SDS011;66384;51.052;9.850;2023-06-14T09:40:47;7.30;;;5.30;;
77322;SDS011;66384;51.052;9.850;2023-06-14T09:43:18;6.90;;;4.80;;
77322;SDS011;66384;51.052;9.850;2023-06-14T09:45:48;5.20;;;4.40;;
77322;SDS011;66384;51.052;9.850;2023-06-14T09:48:18;5.70;;;5.00;;
77322;SDS011;66384;51.052;9.850;2023-06-14T09:50:49;6.30;;;5.80;;
77322;SDS011;66384;51.052;9.850;2023-06-14T09:53:20;8.30;;;5.10;;
77322;SDS011;66384;51.052;9.850;2023-06-14T09:55:51;7.80;;;5.40;;
77322;SDS011;66384;51.052;9.850;2023-06-14T09:58:22;4.90;;;4.40;;
77322;SDS011;66384;51.052;9.850;2023-06-14T10:00:53;6.30;;;4.30;;
77322;SDS011;66384;51.052;9.850;2023-06-14T10:03:26;9.30;;;5.10;;
77322;SDS011;66384;51.052;9.850;2023-06-14T10:05:58;10.20;;;4.90;;
77322;SDS011;66384;51.052;9.850;2023-06-14T10:08:30;5.40;;;4.80;;
77322;SDS011;66384;51.052;9.850;2023-06-14T10:11:03;4.70;;;4.20;;
77322;SDS011;66384;51.052;9.850;2023-06-14T10:13:32;6.40;;;4.70;;
77322;SDS011;66384;51.052;9.850;2023-06-14T10:16:05;5.80;;;4.40;;
77322;SDS011;66384;51.052;9.850;2023-06-14T10:18:43;5.60;;;4.60;;
77322;SDS011;66384;51.052;9.850;2023-06-14T10:21:18;4.80;;;4.00;;
77322;SDS011;66384;51.052;9.850;2023-06-14T10:26:21;5.70;;;4.50;;
77322;SDS011;66384;51.052;9.850;2023-06-14T10:28:58;7.00;;;4.10;;
77322;SDS011;66384;51.052;9.850;2023-06-14T10:34:22;5.90;;;4.90;;
77322;SDS011;66384;51.052;9.850;2023-06-14T10:37:01;7.20;;;5.00;;
77322;SDS011;66384;51.052;9.850;2023-06-14T10:39:33;6.80;;;4.50;;
77322;SDS011;66384;51.052;9.850;2023-06-14T10:42:06;6.20;;;5.00;;
77322;SDS011;66384;51.052;9.850;2023-06-14T10:44:40;7.30;;;5.10;;
77322;SDS011;66384;51.052;9.850;2023-06-14T10:47:19;8.80;;;7.50;;
77322;SDS011;66384;51.052;9.850;2023-06-14T10:49:51;8.70;;;5.50;;
77322;SDS011;66384;51.052;9.850;2023-06-14T10:52:22;7.80;;;5.80;;
77322;SDS011;66384;51.052;9.850;2023-06-14T10:54:56;9.70;;;5.30;;
77322;SDS011;66384;51.052;9.850;2023-06-14T10:57:30;6.10;;;5.10;;
77322;SDS011;66384;51.052;9.850;2023-06-14T11:00:00;6.50;;;5.90;;
77322;SDS011;66384;51.052;9.850;2023-06-14T11:02:52;6.60;;;5.50;;
77322;SDS011;66384;51.052;9.850;2023-06-14T11:05:49;6.00;;;5.40;;
77322;SDS011;66384;51.052;9.850;2023-06-14T11:08:37;7.40;;;4.30;;
77322;SDS011;66384;51.052;9.850;2023-06-14T11:11:31;8.00;;;5.90;;
77322;SDS011;66384;51.052;9.850;2023-06-14T11:14:01;8.40;;;5.40;;
77322;SDS011;66384;51.052;9.850;2023-06-14T11:16:31;5.60;;;4.50;;
77322;SDS011;66384;51.052;9.850;2023-06-14T11:19:01;8.10;;;5.20;;
77322;SDS011;66384;51.052;9.850;2023-06-14T11:21:31;11.90;;;6.10;;
77322;SDS011;66384;51.052;9.850;2023-06-14T11:24:01;9.60;;;5.20;;
77322;SDS011;66384;51.052;9.850;2023-06-14T11:26:30;9.90;;;5.90;;
77322;SDS011;66384;51.052;9.850;2023-06-14T11:29:02;7.80;;;4.70;;
77322;SDS011;66384;51.052;9.850;2023-06-14T11:31:31;7.00;;;6.30;;
77322;SDS011;66384;51.052;9.850;2023-06-14T11:34:00;6.00;;;4.00;;
77322;SDS011;66384;51.052;9.850;2023-06-14T11:36:30;7.50;;;5.00;;
77322;SDS011;66384;51.052;9.850;2023-06-14T11:39:02;5.30;;;4.80;;
77322;SDS011;66384;51.052;9.850;2023-06-14T11:41:34;8.70;;;5.20;;
77322;SDS011;66384;51.052;9.850;2023-06-14T11:44:06;9.80;;;6.90;;
77322;SDS011;66384;51.052;9.850;2023-06-14T11:46:35;9.10;;;6.10;;
77322;SDS011;66384;51.052;9.850;2023-06-14T11:49:06;11.10;;;6.70;;
77322;SDS011;66384;51.052;9.850;2023-06-14T11:51:36;6.50;;;5.20;;
77322;SDS011;66384;51.052;9.850;2023-06-14T11:54:06;5.80;;;5.20;;
77322;SDS011;66384;51.052;9.850;2023-06-14T11:56:36;6.90;;;4.80;;
77322;SDS011;66384;51.052;9.850;2023-06-14T11:59:05;122.10;;;19.90;;
77322;SDS011;66384;51.052;9.850;2023-06-14T12:01:37;9.20;;;6.20;;
77322;SDS011;66384;51.052;9.850;2023-06-14T12:04:06;7.60;;;4.90;;
77322;SDS011;66384;51.052;9.850;2023-06-14T12:06:35;11.40;;;6.50;;
77322;SDS011;66384;51.052;9.850;2023-06-14T12:09:06;14.30;;;9.30;;
77322;SDS011;66384;51.052;9.850;2023-06-14T12:11:40;8.80;;;6.70;;
77322;SDS011;66384;51.052;9.850;2023-06-14T12:14:09;41.20;;;8.70;;
77322;SDS011;66384;51.052;9.850;2023-06-14T12:16:39;12.50;;;6.80;;
77322;SDS011;66384;51.052;9.850;2023-06-14T12:19:09;22.00;;;11.20;;
77322;SDS011;66384;51.052;9.850;2023-06-14T12:21:40;12.30;;;7.90;;
77322;SDS011;66384;51.052;9.850;2023-06-14T12:24:13;16.10;;;8.60;;
77322;SDS011;66384;51.052;9.850;2023-06-14T12:26:42;19.10;;;11.00;;
77322;SDS011;66384;51.052;9.850;2023-06-14T12:29:12;13.80;;;10.00;;
77322;SDS011;66384;51.052;9.850;2023-06-14T12:31:41;20.10;;;14.00;;
77322;SDS011;66384;51.052;9.850;2023-06-14T12:34:10;13.50;;;9.70;;
77322;SDS011;66384;51.052;9.850;2023-06-14T12:36:39;10.10;;;6.80;;
77322;SDS011;66384;51.052;9.850;2023-06-14T12:39:11;8.30;;;4.60;;
77322;SDS011;66384;51.052;9.850;2023-06-14T12:41:40;7.90;;;4.70;;
77322;SDS011;66384;51.052;9.850;2023-06-14T12:44:10;6.60;;;4.00;;
77322;SDS011;66384;51.052;9.850;2023-06-14T12:46:39;15.20;;;4.70;;
77322;SDS011;66384;51.052;9.850;2023-06-14T12:49:10;7.30;;;4.70;;
77322;SDS011;66384;51.052;9.850;2023-06-14T12:51:39;4.80;;;4.30;;
77322;SDS011;66384;51.052;9.850;2023-06-14T12:54:09;6.70;;;5.60;;
77322;SDS011;66384;51.052;9.850;2023-06-14T12:56:39;5.20;;;4.60;;
77322;SDS011;66384;51.052;9.850;2023-06-14T12:59:09;10.50;;;4.10;;
77322;SDS011;66384;51.052;9.850;2023-06-14T13:01:39;5.40;;;4.30;;
77322;SDS011;66384;51.052;9.850;2023-06-14T13:04:08;4.30;;;3.70;;
77322;SDS011;66384;51.052;9.850;2023-06-14T13:06:37;8.00;;;5.10;;
77322;SDS011;66384;51.052;9.850;2023-06-14T13:09:06;7.40;;;5.00;;
77322;SDS011;66384;51.052;9.850;2023-06-14T13:11:36;5.90;;;4.90;;
77322;SDS011;66384;51.052;9.850;2023-06-14T13:14:05;6.00;;;4.90;;
77322;SDS011;66384;51.052;9.850;2023-06-14T13:16:34;5.10;;;3.80;;
77322;SDS011;66384;51.052;9.850;2023-06-14T13:19:04;11.70;;;8.30;;
77322;SDS011;66384;51.052;9.850;2023-06-14T13:21:33;12.00;;;8.50;;
77322;SDS011;66384;51.052;9.850;2023-06-14T13:24:03;8.60;;;6.30;;
77322;SDS011;66384;51.052;9.850;2023-06-14T13:26:33;9.80;;;5.80;;
77322;SDS011;66384;51.052;9.850;2023-06-14T13:29:03;11.00;;;8.20;;
77322;SDS011;66384;51.052;9.850;2023-06-14T13:31:32;12.50;;;7.90;;
77322;SDS011;66384;51.052;9.850;2023-06-14T13:34:01;7.80;;;6.40;;
77322;SDS011;66384;51.052;9.850;2023-06-14T13:36:31;8.50;;;6.80;;
77322;SDS011;66384;51.052;9.850;2023-06-14T13:39:00;7.70;;;5.20;;
77322;SDS011;66384;51.052;9.850;2023-06-14T13:41:30;7.80;;;6.20;;
77322;SDS011;66384;51.052;9.850;2023-06-14T13:44:01;8.80;;;4.70;;
77322;SDS011;66384;51.052;9.850;2023-06-14T13:46:31;7.50;;;5.40;;
77322;SDS011;66384;51.052;9.850;2023-06-14T13:49:01;7.70;;;6.70;;
77322;SDS011;66384;51.052;9.850;2023-06-14T13:51:31;6.70;;;5.40;;
77322;SDS011;66384;51.052;9.850;2023-06-14T13:54:01;13.10;;;6.60;;
77322;SDS011;66384;51.052;9.850;2023-06-14T13:56:30;7.50;;;5.70;;
77322;SDS011;66384;51.052;9.850;2023-06-14T13:59:00;7.40;;;4.80;;
77322;SDS011;66384;51.052;9.850;2023-06-14T14:01:29;9.40;;;4.20;;
77322;SDS011;66384;51.052;9.850;2023-06-14T14:03:59;8.00;;;4.60;;
77322;SDS011;66384;51.052;9.850;2023-06-14T14:06:28;35.80;;;9.00;;
77322;SDS011;66384;51.052;9.850;2023-06-14T14:08:57;18.60;;;15.60;;
77322;SDS011;66384;51.052;9.850;2023-06-14T14:11:27;16.40;;;14.00;;
77322;SDS011;66384;51.052;9.850;2023-06-14T14:13:59;19.70;;;17.10;;
77322;SDS011;66384;51.052;9.850;2023-06-14T14:16:29;20.40;;;16.30;;
77322;SDS011;66384;51.052;9.850;2023-06-14T14:18:58;9.80;;;8.10;;
77322;SDS011;66384;51.052;9.850;2023-06-14T14:21:28;11.10;;;8.30;;
77322;SDS011;66384;51.052;9.850;2023-06-14T14:23:58;18.10;;;13.20;;
77322;SDS011;66384;51.052;9.850;2023-06-14T14:26:27;21.10;;;10.90;;
77322;SDS011;66384;51.052;9.850;2023-06-14T14:28:56;8.00;;;6.30;;
77322;SDS011;66384;51.052;9.850;2023-06-14T14:31:26;7.70;;;5.60;;
77322;SDS011;66384;51.052;9.850;2023-06-14T14:33:55;20.60;;;6.80;;
77322;SDS011;66384;51.052;9.850;2023-06-14T14:36:25;20.10;;;7.10;;
77322;SDS011;66384;51.052;9.850;2023-06-14T14:38:54;13.40;;;8.70;;
77322;SDS011;66384;51.052;9.850;2023-06-14T14:41:23;8.90;;;7.80;;
77322;SDS011;66384;51.052;9.850;2023-06-14T14:43:53;12.30;;;7.90;;
77322;SDS011;66384;51.052;9.850;2023-06-14T14:46:22;29.50;;;8.20;;
77322;SDS011;66384;51.052;9.850;2023-06-14T14:48:51;12.80;;;8.90;;
77322;SDS011;66384;51.052;9.850;2023-06-14T14:51:21;8.60;;;7.20;;
77322;SDS011;66384;51.052;9.850;2023-06-14T14:53:50;7.30;;;5.00;;
77322;SDS011;66384;51.052;9.850;2023-06-14T14:56:19;79.80;;;11.70;;
77322;SDS011;66384;51.052;9.850;2023-06-14T14:58:52;10.40;;;6.90;;
77322;SDS011;66384;51.052;9.850;2023-06-14T15:01:21;13.70;;;9.70;;
77322;SDS011;66384;51.052;9.850;2023-06-14T15:03:50;10.70;;;6.80;;
77322;SDS011;66384;51.052;9.850;2023-06-14T15:06:19;9.40;;;8.40;;